sensor_id;sensor_type;location;lat;lon;timestamp;P1;durP1;ratioP1;P2;durP2;ratioP2
48667;SDS011;34453;52.198;5.004;2023-02-11T00:01:27;37.00;;;5.05;;
48667;SDS011;34453;52.198;5.004;2023-02-11T00:03:53;25.92;;;5.22;;
48667;SDS011;34453;52.198;5.004;2023-02-11T00:06:18;38.08;;;7.45;;
48667;SDS011;34453;52.198;5.004;2023-02-11T00:08:43;21.00;;;3.90;;
48667;SDS011;34453;52.198;5.004;2023-02-11T00:11:11;25.30;;;5.03;;
48667;SDS011;34453;52.198;5.004;2023-02-11T00:13:37;22.70;;;4.80;;
48667;SDS011;34453;52.198;5.004;2023-02-11T00:16:06;28.35;;;5.53;;
48667;SDS011;34453;52.198;5.004;2023-02-11T00:18:32;26.10;;;5.25;;
48667;SDS011;34453;52.198;5.004;2023-02-11T00:20:57;25.75;;;5.00;;
48667;SDS011;34453;52.198;5.004;2023-02-11T00:23:22;25.38;;;6.63;;
48667;SDS011;34453;52.198;5.004;2023-02-11T00:25:47;25.95;;;4.80;;
48667;SDS011;34453;52.198;5.004;2023-02-11T00:28:13;30.48;;;4.50;;
48667;SDS011;34453;52.198;5.004;2023-02-11T00:30:38;35.58;;;4.93;;
48667;SDS011;34453;52.198;5.004;2023-02-11T00:33:03;21.75;;;3.42;;
48667;SDS011;34453;52.198;5.004;2023-02-11T00:35:28;28.50;;;4.25;;
48667;SDS011;34453;52.198;5.004;2023-02-11T00:37:54;21.70;;;4.30;;
48667;SDS011;34453;52.198;5.004;2023-02-11T00:40:19;25.50;;;5.60;;
48667;SDS011;34453;52.198;5.004;2023-02-11T00:42:45;26.35;;;4.25;;
48667;SDS011;34453;52.198;5.004;2023-02-11T00:45:10;22.08;;;5.45;;
48667;SDS011;34453;52.198;5.004;2023-02-11T00:47:36;26.10;;;5.07;;
48667;SDS011;34453;52.198;5.004;2023-02-11T00:50:01;18.88;;;3.70;;
48667;SDS011;34453;52.198;5.004;2023-02-11T00:52:29;32.70;;;4.80;;
48667;SDS011;34453;52.198;5.004;2023-02-11T00:54:54;32.28;;;5.35;;
48667;SDS011;34453;52.198;5.004;2023-02-11T00:57:19;19.83;;;3.95;;
48667;SDS011;34453;52.198;5.004;2023-02-11T00:59:44;38.05;;;5.88;;
48667;SDS011;34453;52.198;5.004;2023-02-11T01:02:10;29.25;;;6.82;;
48667;SDS011;34453;52.198;5.004;2023-02-11T01:04:35;28.08;;;4.38;;
48667;SDS011;34453;52.198;5.004;2023-02-11T01:07:00;26.13;;;4.90;;
48667;SDS011;34453;52.198;5.004;2023-02-11T01:09:25;41.33;;;5.63;;
48667;SDS011;34453;52.198;5.004;2023-02-11T01:11:51;29.52;;;4.50;;
48667;SDS011;34453;52.198;5.004;2023-02-11T01:14:16;25.10;;;4.20;;
48667;SDS011;34453;52.198;5.004;2023-02-11T01:16:41;28.63;;;6.78;;
48667;SDS011;34453;52.198;5.004;2023-02-11T01:19:07;19.35;;;4.03;;
48667;SDS011;34453;52.198;5.004;2023-02-11T01:21:32;25.10;;;6.25;;
48667;SDS011;34453;52.198;5.004;2023-02-11T01:23:57;32.80;;;4.35;;
48667;SDS011;34453;52.198;5.004;2023-02-11T01:26:22;19.88;;;4.50;;
48667;SDS011;34453;52.198;5.004;2023-02-11T01:28:48;29.50;;;4.60;;
48667;SDS011;34453;52.198;5.004;2023-02-11T01:31:14;26.98;;;4.40;;
48667;SDS011;34453;52.198;5.004;2023-02-11T01:33:39;31.98;;;4.93;;
48667;SDS011;34453;52.198;5.004;2023-02-11T01:36:05;33.38;;;4.38;;
48667;SDS011;34453;52.198;5.004;2023-02-11T01:38:31;27.50;;;5.75;;
48667;SDS011;34453;52.198;5.004;2023-02-11T01:41:01;22.88;;;5.30;;
48667;SDS011;34453;52.198;5.004;2023-02-11T01:43:27;26.30;;;5.32;;
48667;SDS011;34453;52.198;5.004;2023-02-11T01:46:36;30.63;;;5.40;;
48667;SDS011;34453;52.198;5.004;2023-02-11T01:48:43;18.25;;;5.20;;
48667;SDS011;34453;52.198;5.004;2023-02-11T01:51:17;29.00;;;7.28;;
48667;SDS011;34453;52.198;5.004;2023-02-11T01:53:43;30.25;;;5.70;;
48667;SDS011;34453;52.198;5.004;2023-02-11T01:56:29;23.70;;;5.30;;
48667;SDS011;34453;52.198;5.004;2023-02-11T01:59:21;27.05;;;5.40;;
48667;SDS011;34453;52.198;5.004;2023-02-11T02:01:50;26.63;;;4.80;;
48667;SDS011;34453;52.198;5.004;2023-02-11T02:04:17;24.15;;;6.28;;
48667;SDS011;34453;52.198;5.004;2023-02-11T02:06:45;18.77;;;5.35;;
48667;SDS011;34453;52.198;5.004;2023-02-11T02:09:18;16.60;;;4.57;;
48667;SDS011;34453;52.198;5.004;2023-02-11T02:11:44;27.55;;;5.47;;
48667;SDS011;34453;52.198;5.004;2023-02-11T02:14:09;24.13;;;6.53;;
48667;SDS011;34453;52.198;5.004;2023-02-11T02:16:35;26.90;;;5.60;;
48667;SDS011;34453;52.198;5.004;2023-02-11T02:26:37;25.60;;;5.43;;
48667;SDS011;34453;52.198;5.004;2023-02-11T02:34:52;31.55;;;4.90;;
48667;SDS011;34453;52.198;5.004;2023-02-11T02:40:05;35.15;;;6.10;;
48667;SDS011;34453;52.198;5.004;2023-02-11T02:42:33;21.90;;;4.40;;
48667;SDS011;34453;52.198;5.004;2023-02-11T02:44:58;32.85;;;5.55;;
48667;SDS011;34453;52.198;5.004;2023-02-11T02:47:24;30.98;;;6.13;;
48667;SDS011;34453;52.198;5.004;2023-02-11T02:49:49;26.65;;;5.85;;
48667;SDS011;34453;52.198;5.004;2023-02-11T02:52:17;20.92;;;5.18;;
48667;SDS011;34453;52.198;5.004;2023-02-11T02:57:30;23.80;;;6.50;;
48667;SDS011;34453;52.198;5.004;2023-02-11T03:02:32;26.13;;;5.45;;
48667;SDS011;34453;52.198;5.004;2023-02-11T03:05:09;28.98;;;8.23;;
48667;SDS011;34453;52.198;5.004;2023-02-11T03:07:39;19.88;;;6.32;;
48667;SDS011;34453;52.198;5.004;2023-02-11T03:12:36;21.08;;;5.97;;
48667;SDS011;34453;52.198;5.004;2023-02-11T03:15:02;33.47;;;7.65;;
48667;SDS011;34453;52.198;5.004;2023-02-11T03:17:30;18.88;;;5.97;;
48667;SDS011;34453;52.198;5.004;2023-02-11T03:19:57;19.10;;;6.70;;
48667;SDS011;34453;52.198;5.004;2023-02-11T03:22:24;28.00;;;6.05;;
48667;SDS011;34453;52.198;5.004;2023-02-11T03:24:51;14.35;;;5.15;;
48667;SDS011;34453;52.198;5.004;2023-02-11T03:29:51;24.08;;;7.20;;
48667;SDS011;34453;52.198;5.004;2023-02-11T03:37:37;25.02;;;6.18;;
48667;SDS011;34453;52.198;5.004;2023-02-11T03:42:31;16.83;;;6.25;;
48667;SDS011;34453;52.198;5.004;2023-02-11T03:44:59;34.08;;;7.63;;
48667;SDS011;34453;52.198;5.004;2023-02-11T03:47:28;31.52;;;6.43;;
48667;SDS011;34453;52.198;5.004;2023-02-11T03:49:54;24.50;;;5.18;;
48667;SDS011;34453;52.198;5.004;2023-02-11T03:52:21;24.25;;;5.75;;
48667;SDS011;34453;52.198;5.004;2023-02-11T03:54:47;25.75;;;5.90;;
48667;SDS011;34453;52.198;5.004;2023-02-11T03:57:15;29.60;;;7.95;;
48667;SDS011;34453;52.198;5.004;2023-02-11T03:59:53;23.70;;;6.22;;
48667;SDS011;34453;52.198;5.004;2023-02-11T04:02:20;26.55;;;5.75;;
48667;SDS011;34453;52.198;5.004;2023-02-11T04:04:45;31.10;;;6.80;;
48667;SDS011;34453;52.198;5.004;2023-02-11T04:07:11;26.70;;;6.05;;
48667;SDS011;34453;52.198;5.004;2023-02-11T04:09:36;23.55;;;7.50;;
48667;SDS011;34453;52.198;5.004;2023-02-11T04:12:02;21.83;;;7.38;;
48667;SDS011;34453;52.198;5.004;2023-02-11T04:14:28;26.60;;;6.57;;
48667;SDS011;34453;52.198;5.004;2023-02-11T04:16:53;31.17;;;7.75;;
48667;SDS011;34453;52.198;5.004;2023-02-11T04:19:18;34.30;;;7.68;;
48667;SDS011;34453;52.198;5.004;2023-02-11T04:21:43;34.67;;;8.02;;
48667;SDS011;34453;52.198;5.004;2023-02-11T04:24:09;18.50;;;6.90;;
48667;SDS011;34453;52.198;5.004;2023-02-11T04:26:34;35.15;;;6.82;;
48667;SDS011;34453;52.198;5.004;2023-02-11T04:28:59;33.58;;;7.82;;
48667;SDS011;34453;52.198;5.004;2023-02-11T04:31:24;21.30;;;6.97;;
48667;SDS011;34453;52.198;5.004;2023-02-11T04:33:50;31.95;;;8.90;;
48667;SDS011;34453;52.198;5.004;2023-02-11T04:36:15;35.63;;;8.82;;
48667;SDS011;34453;52.198;5.004;2023-02-11T04:38:40;32.53;;;9.27;;
48667;SDS011;34453;52.198;5.004;2023-02-11T04:41:05;25.63;;;7.53;;
48667;SDS011;34453;52.198;5.004;2023-02-11T04:43:31;33.78;;;11.05;;
48667;SDS011;34453;52.198;5.004;2023-02-11T04:45:56;34.13;;;9.45;;
48667;SDS011;34453;52.198;5.004;2023-02-11T04:48:22;31.65;;;8.23;;
48667;SDS011;34453;52.198;5.004;2023-02-11T04:50:47;31.23;;;10.57;;
48667;SDS011;34453;52.198;5.004;2023-02-11T04:53:13;32.50;;;9.27;;
48667;SDS011;34453;52.198;5.004;2023-02-11T04:55:38;38.03;;;12.55;;
48667;SDS011;34453;52.198;5.004;2023-02-11T04:58:03;34.88;;;10.30;;
48667;SDS011;34453;52.198;5.004;2023-02-11T05:00:28;28.58;;;10.00;;
48667;SDS011;34453;52.198;5.004;2023-02-11T05:02:54;34.78;;;10.65;;
48667;SDS011;34453;52.198;5.004;2023-02-11T05:05:19;27.17;;;11.80;;
48667;SDS011;34453;52.198;5.004;2023-02-11T05:07:44;38.55;;;10.75;;
48667;SDS011;34453;52.198;5.004;2023-02-11T05:10:09;27.38;;;11.35;;
48667;SDS011;34453;52.198;5.004;2023-02-11T05:12:35;30.38;;;11.38;;
48667;SDS011;34453;52.198;5.004;2023-02-11T05:15:00;39.25;;;12.93;;
48667;SDS011;34453;52.198;5.004;2023-02-11T05:17:25;37.58;;;13.40;;
48667;SDS011;34453;52.198;5.004;2023-02-11T05:19:50;28.35;;;12.32;;
48667;SDS011;34453;52.198;5.004;2023-02-11T05:22:16;35.22;;;12.02;;
48667;SDS011;34453;52.198;5.004;2023-02-11T05:24:41;30.67;;;13.48;;
48667;SDS011;34453;52.198;5.004;2023-02-11T05:27:06;30.30;;;11.45;;
48667;SDS011;34453;52.198;5.004;2023-02-11T05:29:31;46.50;;;11.30;;
48667;SDS011;34453;52.198;5.004;2023-02-11T05:31:57;36.42;;;13.90;;
48667;SDS011;34453;52.198;5.004;2023-02-11T05:34:22;29.70;;;12.38;;
48667;SDS011;34453;52.198;5.004;2023-02-11T05:36:48;40.25;;;12.77;;
48667;SDS011;34453;52.198;5.004;2023-02-11T05:39:13;35.50;;;13.38;;
48667;SDS011;34453;52.198;5.004;2023-02-11T05:41:38;44.28;;;13.77;;
48667;SDS011;34453;52.198;5.004;2023-02-11T05:44:03;41.35;;;14.35;;
48667;SDS011;34453;52.198;5.004;2023-02-11T05:46:29;39.78;;;14.00;;
48667;SDS011;34453;52.198;5.004;2023-02-11T05:48:54;40.22;;;14.68;;
48667;SDS011;34453;52.198;5.004;2023-02-11T05:51:20;38.83;;;14.85;;
48667;SDS011;34453;52.198;5.004;2023-02-11T05:53:45;44.42;;;13.57;;
48667;SDS011;34453;52.198;5.004;2023-02-11T05:56:11;46.53;;;15.85;;
48667;SDS011;34453;52.198;5.004;2023-02-11T05:58:38;45.58;;;16.45;;
48667;SDS011;34453;52.198;5.004;2023-02-11T06:01:03;52.63;;;16.40;;
48667;SDS011;34453;52.198;5.004;2023-02-11T06:03:29;43.55;;;15.57;;
48667;SDS011;34453;52.198;5.004;2023-02-11T06:05:54;53.72;;;16.23;;
48667;SDS011;34453;52.198;5.004;2023-02-11T06:08:19;56.30;;;16.23;;
48667;SDS011;34453;52.198;5.004;2023-02-11T06:10:45;44.22;;;15.57;;
48667;SDS011;34453;52.198;5.004;2023-02-11T06:13:10;53.20;;;16.45;;
48667;SDS011;34453;52.198;5.004;2023-02-11T06:15:35;43.50;;;16.00;;
48667;SDS011;34453;52.198;5.004;2023-02-11T06:18:00;48.05;;;18.40;;
48667;SDS011;34453;52.198;5.004;2023-02-11T06:20:26;42.85;;;17.00;;
48667;SDS011;34453;52.198;5.004;2023-02-11T06:22:51;44.15;;;17.02;;
48667;SDS011;34453;52.198;5.004;2023-02-11T06:25:16;49.92;;;17.17;;
48667;SDS011;34453;52.198;5.004;2023-02-11T06:27:41;44.28;;;17.80;;
48667;SDS011;34453;52.198;5.004;2023-02-11T06:30:07;44.38;;;18.67;;
48667;SDS011;34453;52.198;5.004;2023-02-11T06:32:32;39.78;;;16.83;;
48667;SDS011;34453;52.198;5.004;2023-02-11T06:34:58;55.63;;;21.00;;
48667;SDS011;34453;52.198;5.004;2023-02-11T06:37:23;46.17;;;19.50;;
48667;SDS011;34453;52.198;5.004;2023-02-11T06:39:48;51.28;;;18.58;;
48667;SDS011;34453;52.198;5.004;2023-02-11T06:42:14;46.90;;;18.75;;
48667;SDS011;34453;52.198;5.004;2023-02-11T06:44:39;51.05;;;19.77;;
48667;SDS011;34453;52.198;5.004;2023-02-11T06:47:04;55.83;;;19.60;;
48667;SDS011;34453;52.198;5.004;2023-02-11T06:49:30;44.80;;;19.27;;
48667;SDS011;34453;52.198;5.004;2023-02-11T06:51:55;47.42;;;19.58;;
48667;SDS011;34453;52.198;5.004;2023-02-11T06:54:20;55.38;;;19.23;;
48667;SDS011;34453;52.198;5.004;2023-02-11T06:56:45;58.33;;;19.80;;
48667;SDS011;34453;52.198;5.004;2023-02-11T06:59:13;46.50;;;19.55;;
48667;SDS011;34453;52.198;5.004;2023-02-11T07:01:39;38.80;;;19.30;;
48667;SDS011;34453;52.198;5.004;2023-02-11T07:04:04;52.65;;;19.58;;
48667;SDS011;34453;52.198;5.004;2023-02-11T07:06:30;51.28;;;20.63;;
48667;SDS011;34453;52.198;5.004;2023-02-11T07:08:56;57.42;;;21.23;;
48667;SDS011;34453;52.198;5.004;2023-02-11T07:11:22;57.78;;;21.02;;
48667;SDS011;34453;52.198;5.004;2023-02-11T07:13:51;49.10;;;20.70;;
48667;SDS011;34453;52.198;5.004;2023-02-11T07:16:17;52.10;;;21.60;;
48667;SDS011;34453;52.198;5.004;2023-02-11T07:18:43;73.88;;;22.70;;
48667;SDS011;34453;52.198;5.004;2023-02-11T07:21:09;59.90;;;24.35;;
48667;SDS011;34453;52.198;5.004;2023-02-11T07:23:35;53.00;;;23.35;;
48667;SDS011;34453;52.198;5.004;2023-02-11T07:26:07;59.47;;;23.63;;
48667;SDS011;34453;52.198;5.004;2023-02-11T07:28:33;50.92;;;22.15;;
48667;SDS011;34453;52.198;5.004;2023-02-11T07:31:04;48.17;;;23.63;;
48667;SDS011;34453;52.198;5.004;2023-02-11T07:33:29;57.65;;;22.55;;
48667;SDS011;34453;52.198;5.004;2023-02-11T07:35:55;53.70;;;24.00;;
48667;SDS011;34453;52.198;5.004;2023-02-11T07:38:23;53.78;;;22.60;;
48667;SDS011;34453;52.198;5.004;2023-02-11T07:40:49;47.53;;;22.95;;
48667;SDS011;34453;52.198;5.004;2023-02-11T07:43:14;60.72;;;25.13;;
48667;SDS011;34453;52.198;5.004;2023-02-11T07:45:39;60.97;;;24.33;;
48667;SDS011;34453;52.198;5.004;2023-02-11T07:48:04;56.08;;;23.75;;
48667;SDS011;34453;52.198;5.004;2023-02-11T07:50:30;56.33;;;22.00;;
48667;SDS011;34453;52.198;5.004;2023-02-11T07:52:55;53.28;;;23.80;;
48667;SDS011;34453;52.198;5.004;2023-02-11T07:55:20;56.58;;;25.60;;
48667;SDS011;34453;52.198;5.004;2023-02-11T07:57:45;51.05;;;23.83;;
48667;SDS011;34453;52.198;5.004;2023-02-11T08:00:11;61.03;;;25.38;;
48667;SDS011;34453;52.198;5.004;2023-02-11T08:02:36;65.78;;;25.05;;
48667;SDS011;34453;52.198;5.004;2023-02-11T08:05:01;59.97;;;24.52;;
48667;SDS011;34453;52.198;5.004;2023-02-11T08:07:27;56.25;;;24.45;;
48667;SDS011;34453;52.198;5.004;2023-02-11T08:09:53;55.83;;;22.52;;
48667;SDS011;34453;52.198;5.004;2023-02-11T08:12:19;56.45;;;25.48;;
48667;SDS011;34453;52.198;5.004;2023-02-11T08:14:44;54.00;;;24.55;;
48667;SDS011;34453;52.198;5.004;2023-02-11T08:17:10;62.78;;;24.92;;
48667;SDS011;34453;52.198;5.004;2023-02-11T08:19:35;48.00;;;22.08;;
48667;SDS011;34453;52.198;5.004;2023-02-11T08:22:01;60.45;;;24.65;;
48667;SDS011;34453;52.198;5.004;2023-02-11T08:24:26;49.78;;;23.00;;
48667;SDS011;34453;52.198;5.004;2023-02-11T08:26:51;55.35;;;23.77;;
48667;SDS011;34453;52.198;5.004;2023-02-11T08:29:16;57.22;;;23.80;;
48667;SDS011;34453;52.198;5.004;2023-02-11T08:31:43;46.97;;;23.23;;
48667;SDS011;34453;52.198;5.004;2023-02-11T08:34:09;46.53;;;22.65;;
48667;SDS011;34453;52.198;5.004;2023-02-11T08:36:35;52.38;;;25.20;;
48667;SDS011;34453;52.198;5.004;2023-02-11T08:39:03;52.05;;;24.08;;
48667;SDS011;34453;52.198;5.004;2023-02-11T08:41:29;46.83;;;24.70;;
48667;SDS011;34453;52.198;5.004;2023-02-11T08:43:54;59.95;;;24.73;;
48667;SDS011;34453;52.198;5.004;2023-02-11T08:46:20;55.63;;;23.58;;
48667;SDS011;34453;52.198;5.004;2023-02-11T08:48:45;44.55;;;22.42;;
48667;SDS011;34453;52.198;5.004;2023-02-11T08:51:17;52.95;;;25.10;;
48667;SDS011;34453;52.198;5.004;2023-02-11T08:53:43;47.80;;;23.23;;
48667;SDS011;34453;52.198;5.004;2023-02-11T08:56:08;49.65;;;22.98;;
48667;SDS011;34453;52.198;5.004;2023-02-11T08:58:34;45.10;;;22.50;;
48667;SDS011;34453;52.198;5.004;2023-02-11T09:00:59;51.22;;;22.50;;
48667;SDS011;34453;52.198;5.004;2023-02-11T09:03:24;52.22;;;24.33;;
48667;SDS011;34453;52.198;5.004;2023-02-11T09:05:50;41.95;;;22.08;;
48667;SDS011;34453;52.198;5.004;2023-02-11T09:08:17;38.85;;;22.55;;
48667;SDS011;34453;52.198;5.004;2023-02-11T09:10:43;51.88;;;21.95;;
48667;SDS011;34453;52.198;5.004;2023-02-11T09:13:08;41.83;;;21.33;;
48667;SDS011;34453;52.198;5.004;2023-02-11T09:15:33;42.97;;;21.75;;
48667;SDS011;34453;52.198;5.004;2023-02-11T09:17:59;41.70;;;21.10;;
48667;SDS011;34453;52.198;5.004;2023-02-11T09:20:24;50.15;;;22.75;;
48667;SDS011;34453;52.198;5.004;2023-02-11T09:22:50;45.65;;;22.23;;
48667;SDS011;34453;52.198;5.004;2023-02-11T09:25:16;38.75;;;21.65;;
48667;SDS011;34453;52.198;5.004;2023-02-11T09:27:42;38.28;;;20.40;;
48667;SDS011;34453;52.198;5.004;2023-02-11T09:30:07;40.42;;;21.60;;
48667;SDS011;34453;52.198;5.004;2023-02-11T09:32:33;41.58;;;20.92;;
48667;SDS011;34453;52.198;5.004;2023-02-11T09:34:58;42.90;;;20.77;;
48667;SDS011;34453;52.198;5.004;2023-02-11T09:37:23;45.60;;;20.67;;
48667;SDS011;34453;52.198;5.004;2023-02-11T09:39:49;33.90;;;20.13;;
48667;SDS011;34453;52.198;5.004;2023-02-11T09:44:39;40.92;;;20.30;;
48667;SDS011;34453;52.198;5.004;2023-02-11T09:47:42;45.78;;;21.20;;
48667;SDS011;34453;52.198;5.004;2023-02-11T09:50:00;35.88;;;18.67;;
48667;SDS011;34453;52.198;5.004;2023-02-11T09:52:35;27.08;;;18.65;;
48667;SDS011;34453;52.198;5.004;2023-02-11T09:55:02;27.95;;;18.90;;
48667;SDS011;34453;52.198;5.004;2023-02-11T09:57:31;35.72;;;18.85;;
48667;SDS011;34453;52.198;5.004;2023-02-11T09:59:56;32.97;;;18.25;;
48667;SDS011;34453;52.198;5.004;2023-02-11T10:15:27;29.25;;;17.17;;
48667;SDS011;34453;52.198;5.004;2023-02-11T10:18:11;27.55;;;17.45;;
48667;SDS011;34453;52.198;5.004;2023-02-11T10:20:59;28.98;;;16.60;;
48667;SDS011;34453;52.198;5.004;2023-02-11T10:23:31;24.60;;;14.63;;
48667;SDS011;34453;52.198;5.004;2023-02-11T10:25:57;28.25;;;15.68;;
48667;SDS011;34453;52.198;5.004;2023-02-11T10:28:28;22.33;;;13.57;;
48667;SDS011;34453;52.198;5.004;2023-02-11T10:33:26;25.77;;;13.00;;
48667;SDS011;34453;52.198;5.004;2023-02-11T10:35:52;20.00;;;13.85;;
48667;SDS011;34453;52.198;5.004;2023-02-11T10:38:17;23.77;;;12.40;;
48667;SDS011;34453;52.198;5.004;2023-02-11T10:40:42;17.83;;;11.07;;
48667;SDS011;34453;52.198;5.004;2023-02-11T10:43:13;16.58;;;10.65;;
48667;SDS011;34453;52.198;5.004;2023-02-11T10:45:42;20.58;;;11.13;;
48667;SDS011;34453;52.198;5.004;2023-02-11T10:50:59;22.45;;;11.48;;
48667;SDS011;34453;52.198;5.004;2023-02-11T10:53:30;13.80;;;9.43;;
48667;SDS011;34453;52.198;5.004;2023-02-11T10:55:57;20.20;;;9.77;;
48667;SDS011;34453;52.198;5.004;2023-02-11T10:58:39;16.08;;;9.15;;
48667;SDS011;34453;52.198;5.004;2023-02-11T11:03:32;13.23;;;9.38;;
48667;SDS011;34453;52.198;5.004;2023-02-11T11:06:01;15.00;;;9.20;;
48667;SDS011;34453;52.198;5.004;2023-02-11T11:11:06;17.27;;;8.32;;
48667;SDS011;34453;52.198;5.004;2023-02-11T11:13:36;15.80;;;7.28;;
48667;SDS011;34453;52.198;5.004;2023-02-11T11:18:39;12.20;;;8.15;;
48667;SDS011;34453;52.198;5.004;2023-02-11T11:21:10;12.57;;;8.60;;
48667;SDS011;34453;52.198;5.004;2023-02-11T11:23:36;10.55;;;9.10;;
48667;SDS011;34453;52.198;5.004;2023-02-11T11:26:09;14.95;;;8.90;;
48667;SDS011;34453;52.198;5.004;2023-02-11T11:28:58;9.80;;;6.88;;
48667;SDS011;34453;52.198;5.004;2023-02-11T11:31:26;9.80;;;7.05;;
48667;SDS011;34453;52.198;5.004;2023-02-11T11:33:52;7.32;;;6.68;;
48667;SDS011;34453;52.198;5.004;2023-02-11T11:36:19;14.30;;;8.65;;
48667;SDS011;34453;52.198;5.004;2023-02-11T11:38:48;12.23;;;7.95;;
48667;SDS011;34453;52.198;5.004;2023-02-11T11:41:15;10.75;;;7.43;;
48667;SDS011;34453;52.198;5.004;2023-02-11T11:43:52;10.98;;;6.90;;
48667;SDS011;34453;52.198;5.004;2023-02-11T11:46:21;12.82;;;7.75;;
48667;SDS011;34453;52.198;5.004;2023-02-11T11:48:47;8.43;;;7.18;;
48667;SDS011;34453;52.198;5.004;2023-02-11T11:51:14;31.67;;;19.75;;
48667;SDS011;34453;52.198;5.004;2023-02-11T11:53:44;14.73;;;9.48;;
48667;SDS011;34453;52.198;5.004;2023-02-11T11:58:37;15.75;;;8.13;;
48667;SDS011;34453;52.198;5.004;2023-02-11T12:09:14;8.48;;;7.10;;
48667;SDS011;34453;52.198;5.004;2023-02-11T12:12:05;11.70;;;7.53;;
48667;SDS011;34453;52.198;5.004;2023-02-11T12:22:04;12.68;;;7.65;;
48667;SDS011;34453;52.198;5.004;2023-02-11T12:32:44;15.75;;;8.07;;
48667;SDS011;34453;52.198;5.004;2023-02-11T12:35:24;13.10;;;7.53;;
48667;SDS011;34453;52.198;5.004;2023-02-11T12:40:26;13.52;;;8.07;;
48667;SDS011;34453;52.198;5.004;2023-02-11T12:50:56;9.20;;;7.35;;
48667;SDS011;34453;52.198;5.004;2023-02-11T12:53:47;9.13;;;6.95;;
48667;SDS011;34453;52.198;5.004;2023-02-11T12:58:51;7.68;;;6.78;;
48667;SDS011;34453;52.198;5.004;2023-02-11T13:01:19;7.82;;;6.45;;
48667;SDS011;34453;52.198;5.004;2023-02-11T13:03:50;12.95;;;7.25;;
48667;SDS011;34453;52.198;5.004;2023-02-11T13:06:19;17.25;;;7.65;;
48667;SDS011;34453;52.198;5.004;2023-02-11T13:08:46;10.73;;;6.68;;
48667;SDS011;34453;52.198;5.004;2023-02-11T13:11:14;6.97;;;6.07;;
48667;SDS011;34453;52.198;5.004;2023-02-11T13:16:16;9.75;;;5.95;;
48667;SDS011;34453;52.198;5.004;2023-02-11T13:23:52;13.77;;;6.50;;
48667;SDS011;34453;52.198;5.004;2023-02-11T13:29:15;7.72;;;7.03;;
48667;SDS011;34453;52.198;5.004;2023-02-11T13:31:51;10.60;;;6.47;;
48667;SDS011;34453;52.198;5.004;2023-02-11T13:34:24;10.63;;;7.00;;
48667;SDS011;34453;52.198;5.004;2023-02-11T13:36:53;12.18;;;5.93;;
48667;SDS011;34453;52.198;5.004;2023-02-11T13:39:19;6.90;;;6.13;;
48667;SDS011;34453;52.198;5.004;2023-02-11T13:41:45;8.88;;;5.60;;
48667;SDS011;34453;52.198;5.004;2023-02-11T13:49:19;17.80;;;6.55;;
48667;SDS011;34453;52.198;5.004;2023-02-11T13:51:45;12.15;;;6.85;;
48667;SDS011;34453;52.198;5.004;2023-02-11T13:54:18;7.18;;;5.18;;
48667;SDS011;34453;52.198;5.004;2023-02-11T13:56:44;9.85;;;5.85;;
48667;SDS011;34453;52.198;5.004;2023-02-11T14:16:10;9.38;;;4.93;;
48667;SDS011;34453;52.198;5.004;2023-02-11T14:23:51;8.07;;;5.32;;
48667;SDS011;34453;52.198;5.004;2023-02-11T14:31:23;8.10;;;6.65;;
48667;SDS011;34453;52.198;5.004;2023-02-11T14:33:59;9.55;;;6.00;;
48667;SDS011;34453;52.198;5.004;2023-02-11T14:41:42;7.43;;;4.85;;
48667;SDS011;34453;52.198;5.004;2023-02-11T14:44:16;5.55;;;5.00;;
48667;SDS011;34453;52.198;5.004;2023-02-11T14:46:43;11.43;;;4.95;;
48667;SDS011;34453;52.198;5.004;2023-02-11T14:49:12;9.65;;;5.68;;
48667;SDS011;34453;52.198;5.004;2023-02-11T14:51:40;5.07;;;4.65;;
48667;SDS011;34453;52.198;5.004;2023-02-11T14:54:13;7.75;;;5.20;;
48667;SDS011;34453;52.198;5.004;2023-02-11T14:56:41;10.32;;;5.38;;
48667;SDS011;34453;52.198;5.004;2023-02-11T14:59:16;8.27;;;5.00;;
48667;SDS011;34453;52.198;5.004;2023-02-11T15:01:43;11.00;;;6.63;;
48667;SDS011;34453;52.198;5.004;2023-02-11T15:04:26;12.65;;;5.75;;
48667;SDS011;34453;52.198;5.004;2023-02-11T15:06:51;11.50;;;5.30;;
48667;SDS011;34453;52.198;5.004;2023-02-11T15:09:18;6.70;;;5.30;;
48667;SDS011;34453;52.198;5.004;2023-02-11T15:11:45;7.32;;;5.20;;
48667;SDS011;34453;52.198;5.004;2023-02-11T15:14:25;9.93;;;5.30;;
48667;SDS011;34453;52.198;5.004;2023-02-11T15:16:51;6.35;;;5.38;;
48667;SDS011;34453;52.198;5.004;2023-02-11T15:19:22;6.97;;;5.35;;
48667;SDS011;34453;52.198;5.004;2023-02-11T15:21:48;9.13;;;5.90;;
48667;SDS011;34453;52.198;5.004;2023-02-11T15:24:22;7.53;;;6.03;;
48667;SDS011;34453;52.198;5.004;2023-02-11T15:26:58;6.75;;;5.90;;
48667;SDS011;34453;52.198;5.004;2023-02-11T15:29:24;11.02;;;5.05;;
48667;SDS011;34453;52.198;5.004;2023-02-11T15:34:34;5.95;;;5.13;;
48667;SDS011;34453;52.198;5.004;2023-02-11T15:37:01;14.60;;;5.57;;
48667;SDS011;34453;52.198;5.004;2023-02-11T15:39:30;7.18;;;6.53;;
48667;SDS011;34453;52.198;5.004;2023-02-11T15:42:15;9.98;;;5.55;;
48667;SDS011;34453;52.198;5.004;2023-02-11T15:44:40;6.50;;;5.35;;
48667;SDS011;34453;52.198;5.004;2023-02-11T15:47:08;9.50;;;6.05;;
48667;SDS011;34453;52.198;5.004;2023-02-11T15:49:33;9.35;;;5.25;;
48667;SDS011;34453;52.198;5.004;2023-02-11T15:51:59;12.73;;;5.38;;
48667;SDS011;34453;52.198;5.004;2023-02-11T15:54:25;11.63;;;6.63;;
48667;SDS011;34453;52.198;5.004;2023-02-11T15:56:52;9.98;;;6.00;;
48667;SDS011;34453;52.198;5.004;2023-02-11T15:59:30;7.00;;;5.68;;
48667;SDS011;34453;52.198;5.004;2023-02-11T16:02:04;16.83;;;6.95;;
48667;SDS011;34453;52.198;5.004;2023-02-11T16:04:30;9.32;;;4.93;;
48667;SDS011;34453;52.198;5.004;2023-02-11T16:06:56;7.25;;;5.22;;
48667;SDS011;34453;52.198;5.004;2023-02-11T16:09:31;9.10;;;5.28;;
48667;SDS011;34453;52.198;5.004;2023-02-11T16:11:59;7.35;;;5.53;;
48667;SDS011;34453;52.198;5.004;2023-02-11T16:17:11;13.05;;;6.90;;
48667;SDS011;34453;52.198;5.004;2023-02-11T16:19:46;9.35;;;5.63;;
48667;SDS011;34453;52.198;5.004;2023-02-11T16:22:16;13.07;;;5.55;;
48667;SDS011;34453;52.198;5.004;2023-02-11T16:24:44;9.05;;;6.57;;
48667;SDS011;34453;52.198;5.004;2023-02-11T16:27:23;9.07;;;6.38;;
48667;SDS011;34453;52.198;5.004;2023-02-11T16:29:51;6.50;;;5.78;;
48667;SDS011;34453;52.198;5.004;2023-02-11T16:32:21;6.90;;;6.07;;
48667;SDS011;34453;52.198;5.004;2023-02-11T16:34:47;14.65;;;6.57;;
48667;SDS011;34453;52.198;5.004;2023-02-11T16:37:12;11.95;;;6.97;;
48667;SDS011;34453;52.198;5.004;2023-02-11T16:39:38;8.95;;;5.43;;
48667;SDS011;34453;52.198;5.004;2023-02-11T16:42:03;9.40;;;6.10;;
48667;SDS011;34453;52.198;5.004;2023-02-11T16:44:29;7.80;;;6.57;;
48667;SDS011;34453;52.198;5.004;2023-02-11T16:46:56;9.98;;;6.93;;
48667;SDS011;34453;52.198;5.004;2023-02-11T16:49:27;13.07;;;6.32;;
48667;SDS011;34453;52.198;5.004;2023-02-11T16:51:54;9.23;;;6.57;;
48667;SDS011;34453;52.198;5.004;2023-02-11T16:54:21;11.25;;;6.10;;
48667;SDS011;34453;52.198;5.004;2023-02-11T16:56:47;11.23;;;6.78;;
48667;SDS011;34453;52.198;5.004;2023-02-11T16:59:12;9.93;;;6.57;;
48667;SDS011;34453;52.198;5.004;2023-02-11T17:01:38;9.48;;;6.90;;
48667;SDS011;34453;52.198;5.004;2023-02-11T17:04:04;14.82;;;8.77;;
48667;SDS011;34453;52.198;5.004;2023-02-11T17:06:30;12.18;;;6.70;;
48667;SDS011;34453;52.198;5.004;2023-02-11T17:08:56;16.85;;;7.35;;